sensor_id;sensor_type;location;lat;lon;timestamp;P1;durP1;ratioP1;P2;durP2;ratioP2
5121;SDS011;2563;52.242;7.956;2022-10-23T00:00:35;18.23;;;6.33;;
5121;SDS011;2563;52.242;7.956;2022-10-23T00:03:01;14.00;;;7.00;;
5121;SDS011;2563;52.242;7.956;2022-10-23T00:05:28;11.73;;;6.57;;
5121;SDS011;2563;52.242;7.956;2022-10-23T00:07:55;15.77;;;6.53;;
5121;SDS011;2563;52.242;7.956;2022-10-23T00:10:22;16.00;;;6.23;;
5121;SDS011;2563;52.242;7.956;2022-10-23T00:12:49;16.80;;;5.67;;
5121;SDS011;2563;52.242;7.956;2022-10-23T00:15:16;23.30;;;6.07;;
5121;SDS011;2563;52.242;7.956;2022-10-23T00:17:43;10.10;;;5.50;;
5121;SDS011;2563;52.242;7.956;2022-10-23T00:20:09;15.10;;;6.93;;
5121;SDS011;2563;52.242;7.956;2022-10-23T00:22:35;17.57;;;7.30;;
5121;SDS011;2563;52.242;7.956;2022-10-23T00:25:00;15.17;;;6.60;;
5121;SDS011;2563;52.242;7.956;2022-10-23T00:27:26;15.40;;;6.60;;
5121;SDS011;2563;52.242;7.956;2022-10-23T00:29:51;16.40;;;5.90;;
5121;SDS011;2563;52.242;7.956;2022-10-23T00:32:16;18.00;;;5.53;;
5121;SDS011;2563;52.242;7.956;2022-10-23T00:34:42;13.53;;;5.70;;
5121;SDS011;2563;52.242;7.956;2022-10-23T00:37:07;12.37;;;5.10;;
5121;SDS011;2563;52.242;7.956;2022-10-23T00:39:33;15.63;;;5.43;;
5121;SDS011;2563;52.242;7.956;2022-10-23T00:41:58;12.37;;;5.83;;
5121;SDS011;2563;52.242;7.956;2022-10-23T00:46:49;14.17;;;6.30;;
5121;SDS011;2563;52.242;7.956;2022-10-23T00:49:14;16.40;;;6.00;;
5121;SDS011;2563;52.242;7.956;2022-10-23T00:51:44;10.50;;;5.03;;
5121;SDS011;2563;52.242;7.956;2022-10-23T00:54:13;14.20;;;5.30;;
5121;SDS011;2563;52.242;7.956;2022-10-23T00:56:42;15.97;;;6.07;;
5121;SDS011;2563;52.242;7.956;2022-10-23T00:59:08;11.83;;;5.93;;
5121;SDS011;2563;52.242;7.956;2022-10-23T01:01:34;14.27;;;6.67;;
5121;SDS011;2563;52.242;7.956;2022-10-23T01:04:03;32.93;;;9.80;;
5121;SDS011;2563;52.242;7.956;2022-10-23T01:12:13;21.97;;;8.17;;
5121;SDS011;2563;52.242;7.956;2022-10-23T01:31:57;14.43;;;6.37;;
5121;SDS011;2563;52.242;7.956;2022-10-23T01:34:26;18.13;;;7.10;;
5121;SDS011;2563;52.242;7.956;2022-10-23T01:36:55;14.60;;;5.87;;
5121;SDS011;2563;52.242;7.956;2022-10-23T01:39:24;15.87;;;6.40;;
5121;SDS011;2563;52.242;7.956;2022-10-23T01:41:58;19.73;;;6.67;;
5121;SDS011;2563;52.242;7.956;2022-10-23T01:44:40;13.70;;;6.03;;
5121;SDS011;2563;52.242;7.956;2022-10-23T01:47:10;14.20;;;6.17;;
5121;SDS011;2563;52.242;7.956;2022-10-23T01:49:38;14.33;;;6.27;;
5121;SDS011;2563;52.242;7.956;2022-10-23T01:52:07;13.37;;;6.73;;
5121;SDS011;2563;52.242;7.956;2022-10-23T01:54:37;15.40;;;6.57;;
5121;SDS011;2563;52.242;7.956;2022-10-23T01:57:06;18.73;;;7.40;;
5121;SDS011;2563;52.242;7.956;2022-10-23T01:59:36;16.03;;;6.57;;
5121;SDS011;2563;52.242;7.956;2022-10-23T02:02:05;19.20;;;6.90;;
5121;SDS011;2563;52.242;7.956;2022-10-23T02:04:35;14.00;;;6.50;;
5121;SDS011;2563;52.242;7.956;2022-10-23T02:07:04;14.70;;;6.63;;
5121;SDS011;2563;52.242;7.956;2022-10-23T02:09:30;19.37;;;8.27;;
5121;SDS011;2563;52.242;7.956;2022-10-23T02:14:45;12.00;;;6.23;;
5121;SDS011;2563;52.242;7.956;2022-10-23T02:17:20;15.90;;;6.70;;
5121;SDS011;2563;52.242;7.956;2022-10-23T02:20:00;13.03;;;5.87;;
5121;SDS011;2563;52.242;7.956;2022-10-23T02:22:49;15.70;;;6.20;;
5121;SDS011;2563;52.242;7.956;2022-10-23T02:25:40;12.90;;;5.33;;
5121;SDS011;2563;52.242;7.956;2022-10-23T02:28:13;16.07;;;5.60;;
5121;SDS011;2563;52.242;7.956;2022-10-23T02:30:43;17.03;;;5.57;;
5121;SDS011;2563;52.242;7.956;2022-10-23T02:33:11;11.77;;;4.97;;
5121;SDS011;2563;52.242;7.956;2022-10-23T02:35:38;14.57;;;6.20;;
5121;SDS011;2563;52.242;7.956;2022-10-23T02:38:25;19.60;;;5.37;;
5121;SDS011;2563;52.242;7.956;2022-10-23T02:41:10;10.03;;;4.47;;
5121;SDS011;2563;52.242;7.956;2022-10-23T02:43:45;15.50;;;4.83;;
5121;SDS011;2563;52.242;7.956;2022-10-23T02:49:14;13.40;;;5.67;;
5121;SDS011;2563;52.242;7.956;2022-10-23T02:51:52;11.40;;;5.00;;
5121;SDS011;2563;52.242;7.956;2022-10-23T02:57:03;16.93;;;5.90;;
5121;SDS011;2563;52.242;7.956;2022-10-23T03:02:20;11.57;;;4.97;;
5121;SDS011;2563;52.242;7.956;2022-10-23T03:04:50;12.40;;;5.20;;
5121;SDS011;2563;52.242;7.956;2022-10-23T03:07:18;13.33;;;5.10;;
5121;SDS011;2563;52.242;7.956;2022-10-23T03:09:44;11.80;;;5.10;;
5121;SDS011;2563;52.242;7.956;2022-10-23T03:12:10;14.73;;;4.83;;
5121;SDS011;2563;52.242;7.956;2022-10-23T03:14:35;21.53;;;5.20;;
5121;SDS011;2563;52.242;7.956;2022-10-23T03:17:00;10.20;;;4.30;;
5121;SDS011;2563;52.242;7.956;2022-10-23T03:19:26;10.10;;;4.27;;
5121;SDS011;2563;52.242;7.956;2022-10-23T03:21:51;16.10;;;4.93;;
5121;SDS011;2563;52.242;7.956;2022-10-23T03:24:17;14.03;;;4.40;;
5121;SDS011;2563;52.242;7.956;2022-10-23T03:26:42;13.50;;;5.00;;
5121;SDS011;2563;52.242;7.956;2022-10-23T03:29:07;11.60;;;5.43;;
5121;SDS011;2563;52.242;7.956;2022-10-23T03:31:33;12.07;;;4.60;;
5121;SDS011;2563;52.242;7.956;2022-10-23T03:33:58;15.90;;;4.67;;
5121;SDS011;2563;52.242;7.956;2022-10-23T03:36:23;18.03;;;5.20;;
5121;SDS011;2563;52.242;7.956;2022-10-23T03:38:49;24.37;;;5.20;;
5121;SDS011;2563;52.242;7.956;2022-10-23T03:41:14;11.10;;;5.23;;
5121;SDS011;2563;52.242;7.956;2022-10-23T03:43:39;15.10;;;5.20;;
5121;SDS011;2563;52.242;7.956;2022-10-23T03:46:05;15.07;;;5.00;;
5121;SDS011;2563;52.242;7.956;2022-10-23T03:48:33;9.97;;;4.50;;
5121;SDS011;2563;52.242;7.956;2022-10-23T03:51:02;13.30;;;5.00;;
5121;SDS011;2563;52.242;7.956;2022-10-23T03:53:28;10.30;;;5.20;;
5121;SDS011;2563;52.242;7.956;2022-10-23T03:55:53;8.87;;;4.00;;
5121;SDS011;2563;52.242;7.956;2022-10-23T03:58:19;10.77;;;4.20;;
5121;SDS011;2563;52.242;7.956;2022-10-23T04:00:44;16.23;;;5.10;;
5121;SDS011;2563;52.242;7.956;2022-10-23T04:03:09;9.10;;;3.80;;
5121;SDS011;2563;52.242;7.956;2022-10-23T04:05:35;9.87;;;4.20;;
5121;SDS011;2563;52.242;7.956;2022-10-23T04:08:00;8.27;;;4.07;;
5121;SDS011;2563;52.242;7.956;2022-10-23T04:10:25;15.97;;;4.77;;
5121;SDS011;2563;52.242;7.956;2022-10-23T04:12:50;12.60;;;4.63;;
5121;SDS011;2563;52.242;7.956;2022-10-23T04:15:16;9.47;;;4.13;;
5121;SDS011;2563;52.242;7.956;2022-10-23T04:17:41;9.40;;;4.30;;
5121;SDS011;2563;52.242;7.956;2022-10-23T04:20:07;9.20;;;4.87;;
5121;SDS011;2563;52.242;7.956;2022-10-23T04:22:32;11.63;;;4.63;;
5121;SDS011;2563;52.242;7.956;2022-10-23T04:24:58;15.60;;;5.37;;
5121;SDS011;2563;52.242;7.956;2022-10-23T04:27:23;10.70;;;5.27;;
5121;SDS011;2563;52.242;7.956;2022-10-23T04:29:48;16.57;;;5.10;;
5121;SDS011;2563;52.242;7.956;2022-10-23T04:32:14;12.00;;;5.03;;
5121;SDS011;2563;52.242;7.956;2022-10-23T04:34:39;9.50;;;4.63;;
5121;SDS011;2563;52.242;7.956;2022-10-23T04:37:04;12.63;;;4.03;;
5121;SDS011;2563;52.242;7.956;2022-10-23T04:39:29;14.40;;;4.10;;
5121;SDS011;2563;52.242;7.956;2022-10-23T04:41:55;10.20;;;4.40;;
5121;SDS011;2563;52.242;7.956;2022-10-23T04:44:20;9.40;;;4.27;;
5121;SDS011;2563;52.242;7.956;2022-10-23T04:46:45;13.07;;;5.10;;
5121;SDS011;2563;52.242;7.956;2022-10-23T04:49:11;10.87;;;4.53;;
5121;SDS011;2563;52.242;7.956;2022-10-23T04:51:36;10.60;;;4.63;;
5121;SDS011;2563;52.242;7.956;2022-10-23T04:54:02;11.27;;;4.40;;
5121;SDS011;2563;52.242;7.956;2022-10-23T04:56:28;11.50;;;4.50;;
5121;SDS011;2563;52.242;7.956;2022-10-23T04:58:53;8.97;;;4.10;;
5121;SDS011;2563;52.242;7.956;2022-10-23T05:01:19;12.70;;;4.83;;
5121;SDS011;2563;52.242;7.956;2022-10-23T05:03:44;9.00;;;4.33;;
5121;SDS011;2563;52.242;7.956;2022-10-23T05:06:09;15.73;;;5.07;;
5121;SDS011;2563;52.242;7.956;2022-10-23T05:08:35;14.93;;;5.77;;
5121;SDS011;2563;52.242;7.956;2022-10-23T05:11:00;16.60;;;5.40;;
5121;SDS011;2563;52.242;7.956;2022-10-23T05:13:26;11.70;;;4.73;;
5121;SDS011;2563;52.242;7.956;2022-10-23T05:15:51;13.63;;;5.40;;
5121;SDS011;2563;52.242;7.956;2022-10-23T05:20:42;13.57;;;5.50;;
5121;SDS011;2563;52.242;7.956;2022-10-23T05:23:10;15.23;;;5.87;;
5121;SDS011;2563;52.242;7.956;2022-10-23T05:25:37;12.30;;;5.40;;
5121;SDS011;2563;52.242;7.956;2022-10-23T05:28:03;12.43;;;6.40;;
5121;SDS011;2563;52.242;7.956;2022-10-23T05:30:28;19.83;;;6.47;;
5121;SDS011;2563;52.242;7.956;2022-10-23T05:32:54;14.13;;;5.70;;
5121;SDS011;2563;52.242;7.956;2022-10-23T05:35:20;14.20;;;5.83;;
5121;SDS011;2563;52.242;7.956;2022-10-23T05:37:48;17.10;;;6.20;;
5121;SDS011;2563;52.242;7.956;2022-10-23T05:40:15;16.47;;;6.00;;
5121;SDS011;2563;52.242;7.956;2022-10-23T05:42:41;14.23;;;6.20;;
5121;SDS011;2563;52.242;7.956;2022-10-23T05:45:07;12.10;;;5.67;;
5121;SDS011;2563;52.242;7.956;2022-10-23T05:47:33;14.13;;;6.03;;
5121;SDS011;2563;52.242;7.956;2022-10-23T05:49:58;17.03;;;7.20;;
5121;SDS011;2563;52.242;7.956;2022-10-23T05:52:23;14.40;;;6.30;;
5121;SDS011;2563;52.242;7.956;2022-10-23T05:54:52;15.93;;;5.90;;
5121;SDS011;2563;52.242;7.956;2022-10-23T05:57:17;10.77;;;5.87;;
5121;SDS011;2563;52.242;7.956;2022-10-23T05:59:43;24.93;;;7.00;;
5121;SDS011;2563;52.242;7.956;2022-10-23T06:02:09;16.60;;;6.77;;
5121;SDS011;2563;52.242;7.956;2022-10-23T06:04:34;19.60;;;7.10;;
5121;SDS011;2563;52.242;7.956;2022-10-23T06:07:00;13.73;;;6.60;;
5121;SDS011;2563;52.242;7.956;2022-10-23T06:09:26;15.90;;;5.60;;
5121;SDS011;2563;52.242;7.956;2022-10-23T06:11:51;17.20;;;6.40;;
5121;SDS011;2563;52.242;7.956;2022-10-23T06:14:16;12.87;;;5.43;;
5121;SDS011;2563;52.242;7.956;2022-10-23T06:16:42;14.20;;;5.93;;
5121;SDS011;2563;52.242;7.956;2022-10-23T06:19:10;11.37;;;5.33;;
5121;SDS011;2563;52.242;7.956;2022-10-23T06:21:37;11.30;;;5.77;;
5121;SDS011;2563;52.242;7.956;2022-10-23T06:24:03;12.80;;;5.70;;
5121;SDS011;2563;52.242;7.956;2022-10-23T06:26:30;12.20;;;6.20;;
5121;SDS011;2563;52.242;7.956;2022-10-23T06:28:55;15.50;;;6.33;;
5121;SDS011;2563;52.242;7.956;2022-10-23T06:31:21;15.43;;;6.10;;
5121;SDS011;2563;52.242;7.956;2022-10-23T06:33:50;13.97;;;6.33;;
5121;SDS011;2563;52.242;7.956;2022-10-23T06:36:16;14.43;;;6.03;;
5121;SDS011;2563;52.242;7.956;2022-10-23T06:38:42;18.97;;;6.53;;
5121;SDS011;2563;52.242;7.956;2022-10-23T06:41:12;19.60;;;6.17;;
5121;SDS011;2563;52.242;7.956;2022-10-23T06:43:39;18.13;;;6.47;;
5121;SDS011;2563;52.242;7.956;2022-10-23T06:46:04;19.37;;;6.10;;
5121;SDS011;2563;52.242;7.956;2022-10-23T06:48:30;11.90;;;6.50;;
5121;SDS011;2563;52.242;7.956;2022-10-23T06:50:56;12.33;;;6.90;;
5121;SDS011;2563;52.242;7.956;2022-10-23T06:53:21;13.37;;;6.50;;
5121;SDS011;2563;52.242;7.956;2022-10-23T06:55:48;13.37;;;5.93;;
5121;SDS011;2563;52.242;7.956;2022-10-23T06:58:15;12.20;;;6.53;;
5121;SDS011;2563;52.242;7.956;2022-10-23T07:00:40;13.60;;;6.30;;
5121;SDS011;2563;52.242;7.956;2022-10-23T07:03:05;20.07;;;6.50;;
5121;SDS011;2563;52.242;7.956;2022-10-23T07:05:32;19.17;;;6.97;;
5121;SDS011;2563;52.242;7.956;2022-10-23T07:07:58;11.80;;;6.30;;
5121;SDS011;2563;52.242;7.956;2022-10-23T07:10:23;13.60;;;6.87;;
5121;SDS011;2563;52.242;7.956;2022-10-23T07:12:48;11.53;;;5.90;;
5121;SDS011;2563;52.242;7.956;2022-10-23T07:15:14;13.17;;;6.17;;
5121;SDS011;2563;52.242;7.956;2022-10-23T07:17:40;12.00;;;5.90;;
5121;SDS011;2563;52.242;7.956;2022-10-23T07:20:06;14.57;;;6.87;;
5121;SDS011;2563;52.242;7.956;2022-10-23T07:22:31;16.50;;;6.10;;
5121;SDS011;2563;52.242;7.956;2022-10-23T07:24:57;11.20;;;5.77;;
5121;SDS011;2563;52.242;7.956;2022-10-23T07:27:22;14.63;;;6.03;;
5121;SDS011;2563;52.242;7.956;2022-10-23T07:29:49;12.07;;;6.50;;
5121;SDS011;2563;52.242;7.956;2022-10-23T07:32:14;20.10;;;7.20;;
5121;SDS011;2563;52.242;7.956;2022-10-23T07:34:40;12.30;;;5.63;;
5121;SDS011;2563;52.242;7.956;2022-10-23T07:37:05;23.47;;;6.83;;
5121;SDS011;2563;52.242;7.956;2022-10-23T07:39:30;17.90;;;6.87;;
5121;SDS011;2563;52.242;7.956;2022-10-23T07:41:56;14.40;;;6.20;;
5121;SDS011;2563;52.242;7.956;2022-10-23T07:44:21;12.73;;;6.20;;
5121;SDS011;2563;52.242;7.956;2022-10-23T07:46:46;10.43;;;5.70;;
5121;SDS011;2563;52.242;7.956;2022-10-23T07:49:11;13.17;;;5.43;;
5121;SDS011;2563;52.242;7.956;2022-10-23T07:51:37;14.67;;;5.83;;
5121;SDS011;2563;52.242;7.956;2022-10-23T07:54:02;13.03;;;6.10;;
5121;SDS011;2563;52.242;7.956;2022-10-23T07:56:27;10.37;;;5.97;;
5121;SDS011;2563;52.242;7.956;2022-10-23T07:58:56;11.40;;;6.30;;
5121;SDS011;2563;52.242;7.956;2022-10-23T08:03:58;11.97;;;5.33;;
5121;SDS011;2563;52.242;7.956;2022-10-23T08:06:24;21.87;;;6.60;;
5121;SDS011;2563;52.242;7.956;2022-10-23T08:08:49;12.60;;;5.90;;
5121;SDS011;2563;52.242;7.956;2022-10-23T08:11:17;11.80;;;5.40;;
5121;SDS011;2563;52.242;7.956;2022-10-23T08:13:49;13.03;;;5.10;;
5121;SDS011;2563;52.242;7.956;2022-10-23T08:16:15;11.00;;;5.90;;
5121;SDS011;2563;52.242;7.956;2022-10-23T08:18:40;18.07;;;5.87;;
5121;SDS011;2563;52.242;7.956;2022-10-23T08:21:07;11.00;;;5.60;;
5121;SDS011;2563;52.242;7.956;2022-10-23T08:23:33;17.13;;;6.20;;
5121;SDS011;2563;52.242;7.956;2022-10-23T08:25:59;14.93;;;5.97;;
5121;SDS011;2563;52.242;7.956;2022-10-23T08:28:27;12.40;;;5.07;;
5121;SDS011;2563;52.242;7.956;2022-10-23T08:30:53;12.93;;;7.07;;
5121;SDS011;2563;52.242;7.956;2022-10-23T08:33:18;20.37;;;6.10;;
5121;SDS011;2563;52.242;7.956;2022-10-23T08:35:44;11.53;;;5.30;;
5121;SDS011;2563;52.242;7.956;2022-10-23T08:38:09;12.47;;;4.93;;
5121;SDS011;2563;52.242;7.956;2022-10-23T08:40:35;15.27;;;5.93;;
5121;SDS011;2563;52.242;7.956;2022-10-23T08:45:33;10.53;;;5.10;;
5121;SDS011;2563;52.242;7.956;2022-10-23T08:51:12;12.47;;;5.40;;
5121;SDS011;2563;52.242;7.956;2022-10-23T08:53:51;11.10;;;5.80;;
5121;SDS011;2563;52.242;7.956;2022-10-23T08:56:40;13.10;;;5.70;;
5121;SDS011;2563;52.242;7.956;2022-10-23T09:01:46;11.00;;;5.50;;
5121;SDS011;2563;52.242;7.956;2022-10-23T09:04:17;9.60;;;4.90;;
5121;SDS011;2563;52.242;7.956;2022-10-23T09:09:43;13.53;;;5.17;;
5121;SDS011;2563;52.242;7.956;2022-10-23T09:12:20;10.53;;;5.50;;
5121;SDS011;2563;52.242;7.956;2022-10-23T09:17:32;19.70;;;5.03;;
5121;SDS011;2563;52.242;7.956;2022-10-23T09:22:46;13.47;;;5.13;;
5121;SDS011;2563;52.242;7.956;2022-10-23T09:25:18;12.27;;;4.93;;
5121;SDS011;2563;52.242;7.956;2022-10-23T09:27:52;12.77;;;5.20;;
5121;SDS011;2563;52.242;7.956;2022-10-23T09:32:50;11.13;;;5.13;;
5121;SDS011;2563;52.242;7.956;2022-10-23T09:35:22;11.03;;;4.77;;
5121;SDS011;2563;52.242;7.956;2022-10-23T09:37:48;9.30;;;4.60;;
5121;SDS011;2563;52.242;7.956;2022-10-23T09:40:31;13.23;;;5.50;;
5121;SDS011;2563;52.242;7.956;2022-10-23T09:43:09;14.47;;;5.20;;
5121;SDS011;2563;52.242;7.956;2022-10-23T09:45:38;10.33;;;4.40;;
5121;SDS011;2563;52.242;7.956;2022-10-23T09:48:16;17.43;;;5.00;;
5121;SDS011;2563;52.242;7.956;2022-10-23T09:50:53;10.20;;;4.40;;
5121;SDS011;2563;52.242;7.956;2022-10-23T09:56:30;7.90;;;3.97;;
5121;SDS011;2563;52.242;7.956;2022-10-23T10:01:52;8.03;;;3.90;;
5121;SDS011;2563;52.242;7.956;2022-10-23T10:04:29;12.27;;;4.93;;
5121;SDS011;2563;52.242;7.956;2022-10-23T10:07:01;10.47;;;4.10;;
5121;SDS011;2563;52.242;7.956;2022-10-23T10:09:28;10.17;;;4.90;;
5121;SDS011;2563;52.242;7.956;2022-10-23T10:11:54;11.30;;;4.50;;
5121;SDS011;2563;52.242;7.956;2022-10-23T10:17:14;14.43;;;5.33;;
5121;SDS011;2563;52.242;7.956;2022-10-23T10:20:17;19.50;;;4.47;;
5121;SDS011;2563;52.242;7.956;2022-10-23T10:22:59;8.70;;;3.53;;
5121;SDS011;2563;52.242;7.956;2022-10-23T10:25:33;7.20;;;3.90;;
5121;SDS011;2563;52.242;7.956;2022-10-23T10:33:47;13.53;;;4.93;;
5121;SDS011;2563;52.242;7.956;2022-10-23T10:55:45;10.53;;;3.87;;
5121;SDS011;2563;52.242;7.956;2022-10-23T10:58:16;8.60;;;3.90;;
5121;SDS011;2563;52.242;7.956;2022-10-23T11:00:49;9.93;;;4.47;;
5121;SDS011;2563;52.242;7.956;2022-10-23T11:05:56;9.87;;;3.73;;
5121;SDS011;2563;52.242;7.956;2022-10-23T11:11:06;8.80;;;2.90;;
5121;SDS011;2563;52.242;7.956;2022-10-23T11:13:38;7.60;;;3.47;;
5121;SDS011;2563;52.242;7.956;2022-10-23T11:16:10;12.77;;;4.10;;
5121;SDS011;2563;52.242;7.956;2022-10-23T11:29:40;8.70;;;3.57;;
5121;SDS011;2563;52.242;7.956;2022-10-23T11:38:34;6.10;;;3.20;;
5121;SDS011;2563;52.242;7.956;2022-10-23T11:41:03;9.10;;;3.10;;
5121;SDS011;2563;52.242;7.956;2022-10-23T11:48:48;5.10;;;2.40;;
5121;SDS011;2563;52.242;7.956;2022-10-23T11:51:27;6.97;;;3.20;;
5121;SDS011;2563;52.242;7.956;2022-10-23T11:54:06;14.27;;;5.33;;
5121;SDS011;2563;52.242;7.956;2022-10-23T11:56:34;9.43;;;4.27;;
5121;SDS011;2563;52.242;7.956;2022-10-23T11:59:18;22.33;;;6.43;;
5121;SDS011;2563;52.242;7.956;2022-10-23T12:01:47;12.57;;;6.83;;
5121;SDS011;2563;52.242;7.956;2022-10-23T12:04:23;10.30;;;6.73;;
5121;SDS011;2563;52.242;7.956;2022-10-23T12:06:59;10.73;;;4.53;;
5121;SDS011;2563;52.242;7.956;2022-10-23T12:09:38;9.47;;;4.17;;
5121;SDS011;2563;52.242;7.956;2022-10-23T12:14:34;9.67;;;3.30;;
5121;SDS011;2563;52.242;7.956;2022-10-23T12:17:14;7.70;;;2.93;;
5121;SDS011;2563;52.242;7.956;2022-10-23T12:19:46;5.83;;;2.20;;
5121;SDS011;2563;52.242;7.956;2022-10-23T12:22:19;8.40;;;2.00;;
5121;SDS011;2563;52.242;7.956;2022-10-23T12:24:59;9.03;;;2.30;;
5121;SDS011;2563;52.242;7.956;2022-10-23T12:27:30;9.13;;;1.90;;
5121;SDS011;2563;52.242;7.956;2022-10-23T12:35:45;18.33;;;2.37;;
5121;SDS011;2563;52.242;7.956;2022-10-23T12:38:38;4.37;;;2.27;;
5121;SDS011;2563;52.242;7.956;2022-10-23T12:41:12;7.60;;;4.17;;
5121;SDS011;2563;52.242;7.956;2022-10-23T12:43:41;8.90;;;3.80;;
5121;SDS011;2563;52.242;7.956;2022-10-23T12:46:29;6.63;;;2.97;;
5121;SDS011;2563;52.242;7.956;2022-10-23T12:48:55;5.47;;;2.40;;
5121;SDS011;2563;52.242;7.956;2022-10-23T12:51:38;6.70;;;2.30;;
5121;SDS011;2563;52.242;7.956;2022-10-23T12:54:12;8.20;;;2.30;;
5121;SDS011;2563;52.242;7.956;2022-10-23T12:56:41;7.40;;;2.67;;
5121;SDS011;2563;52.242;7.956;2022-10-23T12:59:13;6.73;;;2.43;;
5121;SDS011;2563;52.242;7.956;2022-10-23T13:01:41;8.00;;;2.63;;
5121;SDS011;2563;52.242;7.956;2022-10-23T13:04:08;5.90;;;2.20;;
5121;SDS011;2563;52.242;7.956;2022-10-23T13:06:59;6.80;;;2.57;;
5121;SDS011;2563;52.242;7.956;2022-10-23T13:11:53;5.50;;;2.60;;
5121;SDS011;2563;52.242;7.956;2022-10-23T13:15:13;7.10;;;2.53;;
5121;SDS011;2563;52.242;7.956;2022-10-23T13:17:44;7.37;;;3.17;;
5121;SDS011;2563;52.242;7.956;2022-10-23T13:22:43;8.20;;;2.80;;
5121;SDS011;2563;52.242;7.956;2022-10-23T13:25:23;5.57;;;2.70;;
5121;SDS011;2563;52.242;7.956;2022-10-23T13:28:01;5.30;;;2.57;;
5121;SDS011;2563;52.242;7.956;2022-10-23T13:30:39;5.50;;;2.60;;
5121;SDS011;2563;52.242;7.956;2022-10-23T13:33:23;7.53;;;3.00;;
5121;SDS011;2563;52.242;7.956;2022-10-23T13:35:57;8.40;;;2.50;;
5121;SDS011;2563;52.242;7.956;2022-10-23T13:38:30;7.23;;;2.40;;
5121;SDS011;2563;52.242;7.956;2022-10-23T13:40:58;14.60;;;2.60;;
5121;SDS011;2563;52.242;7.956;2022-10-23T13:43:24;8.03;;;2.13;;
5121;SDS011;2563;52.242;7.956;2022-10-23T13:45:51;10.57;;;3.00;;
5121;SDS011;2563;52.242;7.956;2022-10-23T13:48:16;7.57;;;2.33;;
5121;SDS011;2563;52.242;7.956;2022-10-23T13:50:44;5.30;;;2.13;;
5121;SDS011;2563;52.242;7.956;2022-10-23T13:53:10;15.80;;;3.47;;
5121;SDS011;2563;52.242;7.956;2022-10-23T13:55:36;5.50;;;2.27;;
5121;SDS011;2563;52.242;7.956;2022-10-23T13:58:04;5.80;;;2.10;;
5121;SDS011;2563;52.242;7.956;2022-10-23T14:00:29;6.73;;;2.30;;
5121;SDS011;2563;52.242;7.956;2022-10-23T14:02:55;13.17;;;2.53;;
5121;SDS011;2563;52.242;7.956;2022-10-23T14:05:20;6.47;;;1.80;;
5121;SDS011;2563;52.242;7.956;2022-10-23T14:07:46;7.03;;;2.10;;
5121;SDS011;2563;52.242;7.956;2022-10-23T14:10:11;5.53;;;2.37;;
5121;SDS011;2563;52.242;7.956;2022-10-23T14:12:38;9.93;;;2.40;;
5121;SDS011;2563;52.242;7.956;2022-10-23T14:15:07;9.10;;;1.97;;
5121;SDS011;2563;52.242;7.956;2022-10-23T14:17:33;4.60;;;1.97;;
5121;SDS011;2563;52.242;7.956;2022-10-23T14:19:59;11.73;;;2.20;;
5121;SDS011;2563;52.242;7.956;2022-10-23T14:22:24;7.67;;;1.77;;
5121;SDS011;2563;52.242;7.956;2022-10-23T14:24:49;7.80;;;2.17;;
5121;SDS011;2563;52.242;7.956;2022-10-23T14:27:14;5.07;;;1.90;;
5121;SDS011;2563;52.242;7.956;2022-10-23T14:29:40;5.03;;;1.87;;
5121;SDS011;2563;52.242;7.956;2022-10-23T14:32:06;5.27;;;1.90;;
5121;SDS011;2563;52.242;7.956;2022-10-23T14:34:31;7.73;;;1.80;;
5121;SDS011;2563;52.242;7.956;2022-10-23T14:36:56;8.57;;;2.13;;
5121;SDS011;2563;52.242;7.956;2022-10-23T14:39:21;7.20;;;2.30;;
5121;SDS011;2563;52.242;7.956;2022-10-23T14:41:47;9.20;;;2.33;;
5121;SDS011;2563;52.242;7.956;2022-10-23T14:44:12;10.60;;;2.97;;
5121;SDS011;2563;52.242;7.956;2022-10-23T14:46:38;5.13;;;2.00;;
5121;SDS011;2563;52.242;7.956;2022-10-23T14:49:03;5.63;;;1.30;;
5121;SDS011;2563;52.242;7.956;2022-10-23T14:51:29;8.77;;;1.60;;
5121;SDS011;2563;52.242;7.956;2022-10-23T14:53:58;5.63;;;1.50;;
5121;SDS011;2563;52.242;7.956;2022-10-23T14:56:28;5.57;;;1.47;;
5121;SDS011;2563;52.242;7.956;2022-10-23T14:58:56;3.50;;;1.40;;
5121;SDS011;2563;52.242;7.956;2022-10-23T15:01:27;6.30;;;1.90;;
5121;SDS011;2563;52.242;7.956;2022-10-23T15:04:12;6.90;;;1.97;;
5121;SDS011;2563;52.242;7.956;2022-10-23T15:06:38;4.83;;;1.60;;
5121;SDS011;2563;52.242;7.956;2022-10-23T15:09:04;9.93;;;2.80;;
5121;SDS011;2563;52.242;7.956;2022-10-23T15:11:29;7.70;;;2.03;;
5121;SDS011;2563;52.242;7.956;2022-10-23T15:13:57;8.03;;;2.17;;
5121;SDS011;2563;52.242;7.956;2022-10-23T15:16:23;11.23;;;1.70;;
5121;SDS011;2563;52.242;7.956;2022-10-23T15:18:49;4.17;;;1.40;;
5121;SDS011;2563;52.242;7.956;2022-10-23T15:21:15;4.13;;;1.37;;
5121;SDS011;2563;52.242;7.956;2022-10-23T15:23:41;7.43;;;3.07;;
5121;SDS011;2563;52.242;7.956;2022-10-23T15:26:09;5.97;;;2.70;;
5121;SDS011;2563;52.242;7.956;2022-10-23T15:28:37;9.53;;;2.00;;
5121;SDS011;2563;52.242;7.956;2022-10-23T15:31:03;6.13;;;1.47;;
5121;SDS011;2563;52.242;7.956;2022-10-23T15:33:29;10.00;;;2.67;;
5121;SDS011;2563;52.242;7.956;2022-10-23T15:35:54;5.27;;;1.97;;
5121;SDS011;2563;52.242;7.956;2022-10-23T15:38:19;6.60;;;2.10;;
5121;SDS011;2563;52.242;7.956;2022-10-23T15:40:46;6.33;;;1.80;;
5121;SDS011;2563;52.242;7.956;2022-10-23T15:43:12;6.60;;;1.60;;
5121;SDS011;2563;52.242;7.956;2022-10-23T15:45:39;7.70;;;1.60;;
5121;SDS011;2563;52.242;7.956;2022-10-23T15:48:05;7.17;;;1.60;;
5121;SDS011;2563;52.242;7.956;2022-10-23T15:50:31;12.70;;;6.07;;
5121;SDS011;2563;52.242;7.956;2022-10-23T15:52:57;8.17;;;2.70;;
5121;SDS011;2563;52.242;7.956;2022-10-23T15:55:23;4.77;;;1.90;;
5121;SDS011;2563;52.242;7.956;2022-10-23T15:57:48;5.87;;;1.67;;
5121;SDS011;2563;52.242;7.956;2022-10-23T16:00:14;5.07;;;1.83;;
5121;SDS011;2563;52.242;7.956;2022-10-23T16:02:39;3.80;;;1.73;;
5121;SDS011;2563;52.242;7.956;2022-10-23T16:05:05;8.17;;;1.80;;
5121;SDS011;2563;52.242;7.956;2022-10-23T16:07:30;6.53;;;2.00;;
5121;SDS011;2563;52.242;7.956;2022-10-23T16:09:56;9.73;;;2.13;;
5121;SDS011;2563;52.242;7.956;2022-10-23T16:12:21;12.97;;;1.40;;
5121;SDS011;2563;52.242;7.956;2022-10-23T16:14:48;8.37;;;1.40;;
5121;SDS011;2563;52.242;7.956;2022-10-23T16:17:13;11.10;;;2.00;;
5121;SDS011;2563;52.242;7.956;2022-10-23T16:19:39;12.47;;;2.43;;
5121;SDS011;2563;52.242;7.956;2022-10-23T16:22:05;4.97;;;2.00;;
5121;SDS011;2563;52.242;7.956;2022-10-23T16:24:31;4.50;;;2.13;;
5121;SDS011;2563;52.242;7.956;2022-10-23T16:26:57;10.97;;;1.93;;
5121;SDS011;2563;52.242;7.956;2022-10-23T16:29:23;8.37;;;1.90;;
5121;SDS011;2563;52.242;7.956;2022-10-23T16:31:54;6.97;;;2.30;;
5121;SDS011;2563;52.242;7.956;2022-10-23T16:34:20;6.63;;;2.30;;
5121;SDS011;2563;52.242;7.956;2022-10-23T16:36:46;13.60;;;5.40;;
5121;SDS011;2563;52.242;7.956;2022-10-23T16:39:12;17.20;;;8.83;;
5121;SDS011;2563;52.242;7.956;2022-10-23T16:41:39;20.37;;;9.37;;
5121;SDS011;2563;52.242;7.956;2022-10-23T16:44:04;27.50;;;13.17;;
5121;SDS011;2563;52.242;7.956;2022-10-23T16:46:30;13.10;;;3.97;;
5121;SDS011;2563;52.242;7.956;2022-10-23T16:48:55;9.37;;;3.77;;
5121;SDS011;2563;52.242;7.956;2022-10-23T16:51:22;7.57;;;2.73;;
5121;SDS011;2563;52.242;7.956;2022-10-23T16:53:50;6.83;;;2.40;;
5121;SDS011;2563;52.242;7.956;2022-10-23T16:56:17;5.40;;;2.40;;
5121;SDS011;2563;52.242;7.956;2022-10-23T16:58:45;5.13;;;2.10;;
5121;SDS011;2563;52.242;7.956;2022-10-23T17:01:15;6.10;;;2.60;;
5121;SDS011;2563;52.242;7.956;2022-10-23T17:03:41;6.73;;;1.97;;
5121;SDS011;2563;52.242;7.956;2022-10-23T17:06:09;12.30;;;6.20;;
5121;SDS011;2563;52.242;7.956;2022-10-23T17:08:35;7.93;;;2.77;;
5121;SDS011;2563;52.242;7.956;2022-10-23T17:13:59;7.90;;;2.70;;
5121;SDS011;2563;52.242;7.956;2022-10-23T17:16:31;12.23;;;2.53;;
5121;SDS011;2563;52.242;7.956;2022-10-23T17:18:58;8.40;;;2.40;;
5121;SDS011;2563;52.242;7.956;2022-10-23T17:21:24;5.27;;;2.20;;
5121;SDS011;2563;52.242;7.956;2022-10-23T17:23:49;6.00;;;2.37;;
5121;SDS011;2563;52.242;7.956;2022-10-23T17:26:16;6.10;;;2.70;;
5121;SDS011;2563;52.242;7.956;2022-10-23T17:28:43;9.30;;;2.93;;
5121;SDS011;2563;52.242;7.956;2022-10-23T17:31:16;8.47;;;3.10;;